sensor_id;sensor_type;location;lat;lon;timestamp;P1;durP1;ratioP1;P2;durP2;ratioP2
70558;SDS011;58108;48.094;11.838;2023-09-18T00:01:29;5.43;;;2.77;;
70558;SDS011;58108;48.094;11.838;2023-09-18T00:03:54;5.17;;;2.73;;
70558;SDS011;58108;48.094;11.838;2023-09-18T00:06:19;6.50;;;2.90;;
70558;SDS011;58108;48.094;11.838;2023-09-18T00:08:44;6.10;;;2.90;;
70558;SDS011;58108;48.094;11.838;2023-09-18T00:11:09;6.17;;;2.90;;
70558;SDS011;58108;48.094;11.838;2023-09-18T00:13:35;4.87;;;2.70;;
70558;SDS011;58108;48.094;11.838;2023-09-18T00:16:00;5.40;;;2.80;;
70558;SDS011;58108;48.094;11.838;2023-09-18T00:18:26;5.00;;;2.77;;
70558;SDS011;58108;48.094;11.838;2023-09-18T00:20:51;6.23;;;3.03;;
70558;SDS011;58108;48.094;11.838;2023-09-18T00:23:17;5.47;;;2.70;;
70558;SDS011;58108;48.094;11.838;2023-09-18T00:25:42;5.27;;;2.50;;
70558;SDS011;58108;48.094;11.838;2023-09-18T00:28:07;5.07;;;2.47;;
70558;SDS011;58108;48.094;11.838;2023-09-18T00:30:33;5.47;;;2.30;;
70558;SDS011;58108;48.094;11.838;2023-09-18T00:32:58;7.23;;;3.10;;
70558;SDS011;58108;48.094;11.838;2023-09-18T00:35:23;4.70;;;2.80;;
70558;SDS011;58108;48.094;11.838;2023-09-18T00:37:49;5.77;;;2.70;;
70558;SDS011;58108;48.094;11.838;2023-09-18T00:40:14;6.43;;;2.63;;
70558;SDS011;58108;48.094;11.838;2023-09-18T00:42:39;5.50;;;2.43;;
70558;SDS011;58108;48.094;11.838;2023-09-18T00:45:04;5.23;;;2.80;;
70558;SDS011;58108;48.094;11.838;2023-09-18T00:47:30;5.90;;;2.90;;
70558;SDS011;58108;48.094;11.838;2023-09-18T00:49:55;5.93;;;3.17;;
70558;SDS011;58108;48.094;11.838;2023-09-18T00:52:20;6.97;;;2.67;;
70558;SDS011;58108;48.094;11.838;2023-09-18T00:54:46;6.00;;;2.80;;
70558;SDS011;58108;48.094;11.838;2023-09-18T00:57:11;6.13;;;2.80;;
70558;SDS011;58108;48.094;11.838;2023-09-18T00:59:37;5.30;;;2.60;;
70558;SDS011;58108;48.094;11.838;2023-09-18T01:02:03;5.55;;;2.88;;
70558;SDS011;58108;48.094;11.838;2023-09-18T01:04:28;4.53;;;2.50;;
70558;SDS011;58108;48.094;11.838;2023-09-18T01:06:55;6.03;;;2.88;;
70558;SDS011;58108;48.094;11.838;2023-09-18T01:09:21;6.15;;;2.75;;
70558;SDS011;58108;48.094;11.838;2023-09-18T01:14:35;7.65;;;2.90;;
70558;SDS011;58108;48.094;11.838;2023-09-18T01:17:00;5.57;;;3.13;;
70558;SDS011;58108;48.094;11.838;2023-09-18T01:19:42;6.35;;;3.00;;
70558;SDS011;58108;48.094;11.838;2023-09-18T01:22:09;6.37;;;3.03;;
70558;SDS011;58108;48.094;11.838;2023-09-18T01:24:35;5.07;;;2.65;;
70558;SDS011;58108;48.094;11.838;2023-09-18T01:27:01;5.63;;;2.97;;
70558;SDS011;58108;48.094;11.838;2023-09-18T01:29:26;6.72;;;2.67;;
70558;SDS011;58108;48.094;11.838;2023-09-18T01:31:52;5.93;;;2.70;;
70558;SDS011;58108;48.094;11.838;2023-09-18T01:34:21;6.40;;;3.00;;
70558;SDS011;58108;48.094;11.838;2023-09-18T01:36:46;6.15;;;2.70;;
70558;SDS011;58108;48.094;11.838;2023-09-18T01:39:12;6.47;;;3.00;;
70558;SDS011;58108;48.094;11.838;2023-09-18T01:41:37;6.47;;;3.00;;
70558;SDS011;58108;48.094;11.838;2023-09-18T01:44:03;4.97;;;2.78;;
70558;SDS011;58108;48.094;11.838;2023-09-18T01:46:29;6.27;;;3.13;;
70558;SDS011;58108;48.094;11.838;2023-09-18T01:48:57;5.65;;;2.65;;
70558;SDS011;58108;48.094;11.838;2023-09-18T01:51:22;5.83;;;2.73;;
70558;SDS011;58108;48.094;11.838;2023-09-18T01:53:47;6.00;;;2.80;;
70558;SDS011;58108;48.094;11.838;2023-09-18T01:56:12;6.27;;;3.20;;
70558;SDS011;58108;48.094;11.838;2023-09-18T01:58:38;7.37;;;3.27;;
70558;SDS011;58108;48.094;11.838;2023-09-18T02:01:03;7.00;;;3.07;;
70558;SDS011;58108;48.094;11.838;2023-09-18T02:03:29;8.27;;;3.22;;
70558;SDS011;58108;48.094;11.838;2023-09-18T02:05:54;6.13;;;2.83;;
70558;SDS011;58108;48.094;11.838;2023-09-18T02:08:19;7.97;;;2.67;;
70558;SDS011;58108;48.094;11.838;2023-09-18T02:10:45;5.97;;;2.87;;
70558;SDS011;58108;48.094;11.838;2023-09-18T02:13:10;5.17;;;2.73;;
70558;SDS011;58108;48.094;11.838;2023-09-18T02:15:36;5.53;;;2.77;;
70558;SDS011;58108;48.094;11.838;2023-09-18T02:18:02;7.88;;;3.08;;
70558;SDS011;58108;48.094;11.838;2023-09-18T02:20:27;6.17;;;3.27;;
70558;SDS011;58108;48.094;11.838;2023-09-18T02:22:52;6.67;;;3.13;;
70558;SDS011;58108;48.094;11.838;2023-09-18T02:25:17;6.03;;;3.10;;
70558;SDS011;58108;48.094;11.838;2023-09-18T02:27:43;8.67;;;3.17;;
70558;SDS011;58108;48.094;11.838;2023-09-18T02:30:08;8.57;;;3.37;;
70558;SDS011;58108;48.094;11.838;2023-09-18T02:32:34;6.15;;;3.10;;
70558;SDS011;58108;48.094;11.838;2023-09-18T02:35:01;6.00;;;2.90;;
70558;SDS011;58108;48.094;11.838;2023-09-18T02:37:26;8.00;;;3.43;;
70558;SDS011;58108;48.094;11.838;2023-09-18T02:39:54;7.43;;;3.28;;
70558;SDS011;58108;48.094;11.838;2023-09-18T02:42:19;6.93;;;3.20;;
70558;SDS011;58108;48.094;11.838;2023-09-18T02:44:44;8.70;;;3.27;;
70558;SDS011;58108;48.094;11.838;2023-09-18T02:47:09;7.20;;;3.00;;
70558;SDS011;58108;48.094;11.838;2023-09-18T02:49:34;6.30;;;3.23;;
70558;SDS011;58108;48.094;11.838;2023-09-18T02:52:00;7.00;;;2.93;;
70558;SDS011;58108;48.094;11.838;2023-09-18T02:54:25;7.53;;;3.40;;
70558;SDS011;58108;48.094;11.838;2023-09-18T02:56:50;7.93;;;3.30;;
70558;SDS011;58108;48.094;11.838;2023-09-18T02:59:15;6.93;;;3.30;;
70558;SDS011;58108;48.094;11.838;2023-09-18T03:01:40;6.20;;;3.30;;
70558;SDS011;58108;48.094;11.838;2023-09-18T03:04:05;8.60;;;3.60;;
70558;SDS011;58108;48.094;11.838;2023-09-18T03:06:31;6.67;;;3.20;;
70558;SDS011;58108;48.094;11.838;2023-09-18T03:08:56;7.00;;;3.30;;
70558;SDS011;58108;48.094;11.838;2023-09-18T03:11:21;8.47;;;3.40;;
70558;SDS011;58108;48.094;11.838;2023-09-18T03:13:46;7.03;;;3.33;;
70558;SDS011;58108;48.094;11.838;2023-09-18T03:16:11;6.47;;;3.30;;
70558;SDS011;58108;48.094;11.838;2023-09-18T03:18:37;7.60;;;3.30;;
70558;SDS011;58108;48.094;11.838;2023-09-18T03:21:02;7.77;;;3.00;;
70558;SDS011;58108;48.094;11.838;2023-09-18T03:23:27;6.87;;;3.17;;
70558;SDS011;58108;48.094;11.838;2023-09-18T03:25:53;6.70;;;3.23;;
70558;SDS011;58108;48.094;11.838;2023-09-18T03:28:18;7.47;;;3.23;;
70558;SDS011;58108;48.094;11.838;2023-09-18T03:30:43;6.43;;;2.80;;
70558;SDS011;58108;48.094;11.838;2023-09-18T03:33:08;8.10;;;3.20;;
70558;SDS011;58108;48.094;11.838;2023-09-18T03:35:36;7.23;;;2.57;;
70558;SDS011;58108;48.094;11.838;2023-09-18T03:38:09;5.63;;;2.83;;
70558;SDS011;58108;48.094;11.838;2023-09-18T03:40:34;6.27;;;3.00;;
70558;SDS011;58108;48.094;11.838;2023-09-18T03:43:00;8.57;;;3.20;;
70558;SDS011;58108;48.094;11.838;2023-09-18T03:45:25;6.85;;;3.20;;
70558;SDS011;58108;48.094;11.838;2023-09-18T03:47:50;6.60;;;3.10;;
70558;SDS011;58108;48.094;11.838;2023-09-18T03:50:16;5.63;;;3.00;;
70558;SDS011;58108;48.094;11.838;2023-09-18T03:52:41;7.17;;;3.07;;
70558;SDS011;58108;48.094;11.838;2023-09-18T03:55:06;5.87;;;2.60;;
70558;SDS011;58108;48.094;11.838;2023-09-18T03:57:32;6.97;;;3.13;;
70558;SDS011;58108;48.094;11.838;2023-09-18T03:59:57;6.30;;;2.90;;
70558;SDS011;58108;48.094;11.838;2023-09-18T04:02:23;5.37;;;2.60;;
70558;SDS011;58108;48.094;11.838;2023-09-18T04:04:48;6.37;;;3.00;;
70558;SDS011;58108;48.094;11.838;2023-09-18T04:07:14;5.97;;;2.90;;
70558;SDS011;58108;48.094;11.838;2023-09-18T04:09:41;6.53;;;3.00;;
70558;SDS011;58108;48.094;11.838;2023-09-18T04:12:06;6.30;;;3.03;;
70558;SDS011;58108;48.094;11.838;2023-09-18T04:14:32;7.43;;;3.63;;
70558;SDS011;58108;48.094;11.838;2023-09-18T04:16:57;9.30;;;4.53;;
70558;SDS011;58108;48.094;11.838;2023-09-18T04:19:23;7.00;;;3.47;;
70558;SDS011;58108;48.094;11.838;2023-09-18T04:21:48;6.30;;;3.23;;
70558;SDS011;58108;48.094;11.838;2023-09-18T04:24:13;6.77;;;3.10;;
70558;SDS011;58108;48.094;11.838;2023-09-18T04:26:39;9.13;;;3.23;;
70558;SDS011;58108;48.094;11.838;2023-09-18T04:29:04;8.85;;;4.07;;
70558;SDS011;58108;48.094;11.838;2023-09-18T04:31:29;8.20;;;3.70;;
70558;SDS011;58108;48.094;11.838;2023-09-18T04:33:55;7.00;;;3.23;;
70558;SDS011;58108;48.094;11.838;2023-09-18T04:36:20;6.63;;;3.57;;
70558;SDS011;58108;48.094;11.838;2023-09-18T04:38:45;7.53;;;3.70;;
70558;SDS011;58108;48.094;11.838;2023-09-18T04:41:11;5.57;;;3.20;;
70558;SDS011;58108;48.094;11.838;2023-09-18T04:43:36;7.23;;;3.40;;
70558;SDS011;58108;48.094;11.838;2023-09-18T04:46:03;5.95;;;2.97;;
70558;SDS011;58108;48.094;11.838;2023-09-18T04:48:30;6.25;;;3.20;;
70558;SDS011;58108;48.094;11.838;2023-09-18T04:50:55;7.27;;;3.30;;
70558;SDS011;58108;48.094;11.838;2023-09-18T04:53:20;5.43;;;3.00;;
70558;SDS011;58108;48.094;11.838;2023-09-18T04:55:46;7.53;;;2.87;;
70558;SDS011;58108;48.094;11.838;2023-09-18T04:58:14;5.75;;;3.10;;
70558;SDS011;58108;48.094;11.838;2023-09-18T05:00:40;7.07;;;2.90;;
70558;SDS011;58108;48.094;11.838;2023-09-18T05:03:06;5.57;;;2.67;;
70558;SDS011;58108;48.094;11.838;2023-09-18T05:05:33;6.70;;;2.90;;
70558;SDS011;58108;48.094;11.838;2023-09-18T05:07:58;5.17;;;2.60;;
70558;SDS011;58108;48.094;11.838;2023-09-18T05:10:23;8.13;;;3.10;;
70558;SDS011;58108;48.094;11.838;2023-09-18T05:12:48;9.23;;;3.97;;
70558;SDS011;58108;48.094;11.838;2023-09-18T05:15:15;8.90;;;4.57;;
70558;SDS011;58108;48.094;11.838;2023-09-18T05:17:45;6.90;;;3.40;;
70558;SDS011;58108;48.094;11.838;2023-09-18T05:20:17;6.60;;;2.22;;
70558;SDS011;58108;48.094;11.838;2023-09-18T05:22:42;6.83;;;2.60;;
70558;SDS011;58108;48.094;11.838;2023-09-18T05:25:08;6.07;;;2.20;;
70558;SDS011;58108;48.094;11.838;2023-09-18T05:27:35;5.95;;;2.53;;
70558;SDS011;58108;48.094;11.838;2023-09-18T05:30:00;7.33;;;2.73;;
70558;SDS011;58108;48.094;11.838;2023-09-18T05:32:25;6.40;;;2.90;;
70558;SDS011;58108;48.094;11.838;2023-09-18T05:34:50;7.73;;;3.00;;
70558;SDS011;58108;48.094;11.838;2023-09-18T05:37:16;6.37;;;2.87;;
70558;SDS011;58108;48.094;11.838;2023-09-18T05:39:41;7.03;;;2.87;;
70558;SDS011;58108;48.094;11.838;2023-09-18T05:42:06;7.60;;;2.83;;
70558;SDS011;58108;48.094;11.838;2023-09-18T05:44:31;5.87;;;2.90;;
70558;SDS011;58108;48.094;11.838;2023-09-18T05:46:56;6.50;;;2.83;;
70558;SDS011;58108;48.094;11.838;2023-09-18T05:49:22;8.93;;;2.90;;
70558;SDS011;58108;48.094;11.838;2023-09-18T05:51:47;7.77;;;2.90;;
70558;SDS011;58108;48.094;11.838;2023-09-18T05:54:13;8.30;;;3.08;;
70558;SDS011;58108;48.094;11.838;2023-09-18T05:56:39;7.60;;;2.93;;
70558;SDS011;58108;48.094;11.838;2023-09-18T05:59:04;7.37;;;3.33;;
70558;SDS011;58108;48.094;11.838;2023-09-18T06:01:30;8.63;;;3.03;;
70558;SDS011;58108;48.094;11.838;2023-09-18T06:03:56;6.90;;;2.93;;
70558;SDS011;58108;48.094;11.838;2023-09-18T06:06:21;7.40;;;3.07;;
70558;SDS011;58108;48.094;11.838;2023-09-18T06:08:46;5.57;;;2.70;;
70558;SDS011;58108;48.094;11.838;2023-09-18T06:11:11;9.63;;;2.97;;
70558;SDS011;58108;48.094;11.838;2023-09-18T06:13:37;6.50;;;2.60;;
70558;SDS011;58108;48.094;11.838;2023-09-18T06:16:02;7.10;;;2.70;;
70558;SDS011;58108;48.094;11.838;2023-09-18T06:18:32;6.22;;;2.60;;
70558;SDS011;58108;48.094;11.838;2023-09-18T06:20:57;7.47;;;2.80;;
70558;SDS011;58108;48.094;11.838;2023-09-18T06:23:22;5.80;;;2.63;;
70558;SDS011;58108;48.094;11.838;2023-09-18T06:25:47;5.80;;;2.50;;
70558;SDS011;58108;48.094;11.838;2023-09-18T06:28:20;6.93;;;2.40;;
70558;SDS011;58108;48.094;11.838;2023-09-18T06:30:45;6.33;;;2.33;;
70558;SDS011;58108;48.094;11.838;2023-09-18T06:33:10;5.70;;;2.37;;
70558;SDS011;58108;48.094;11.838;2023-09-18T06:35:37;8.48;;;2.30;;
70558;SDS011;58108;48.094;11.838;2023-09-18T06:38:03;6.72;;;2.28;;
70558;SDS011;58108;48.094;11.838;2023-09-18T06:40:30;6.97;;;2.20;;
70558;SDS011;58108;48.094;11.838;2023-09-18T06:42:58;6.07;;;2.17;;
70558;SDS011;58108;48.094;11.838;2023-09-18T06:45:25;5.00;;;2.27;;
70558;SDS011;58108;48.094;11.838;2023-09-18T06:47:50;8.50;;;2.30;;
70558;SDS011;58108;48.094;11.838;2023-09-18T06:50:15;6.93;;;2.43;;
70558;SDS011;58108;48.094;11.838;2023-09-18T06:52:40;8.57;;;2.50;;
70558;SDS011;58108;48.094;11.838;2023-09-18T06:55:06;5.63;;;2.13;;
70558;SDS011;58108;48.094;11.838;2023-09-18T06:57:31;7.90;;;2.50;;
70558;SDS011;58108;48.094;11.838;2023-09-18T06:59:56;4.10;;;2.00;;
70558;SDS011;58108;48.094;11.838;2023-09-18T07:02:21;5.77;;;2.40;;
70558;SDS011;58108;48.094;11.838;2023-09-18T07:04:47;5.67;;;2.30;;
70558;SDS011;58108;48.094;11.838;2023-09-18T07:07:12;5.43;;;2.47;;
70558;SDS011;58108;48.094;11.838;2023-09-18T07:09:38;7.57;;;2.57;;
70558;SDS011;58108;48.094;11.838;2023-09-18T07:12:03;5.43;;;2.17;;
70558;SDS011;58108;48.094;11.838;2023-09-18T07:14:28;9.13;;;2.27;;
70558;SDS011;58108;48.094;11.838;2023-09-18T07:16:53;5.70;;;2.40;;
70558;SDS011;58108;48.094;11.838;2023-09-18T07:19:18;5.37;;;2.23;;
70558;SDS011;58108;48.094;11.838;2023-09-18T07:21:44;5.70;;;2.50;;
70558;SDS011;58108;48.094;11.838;2023-09-18T07:24:09;6.72;;;2.22;;
70558;SDS011;58108;48.094;11.838;2023-09-18T07:26:35;6.00;;;2.30;;
70558;SDS011;58108;48.094;11.838;2023-09-18T07:29:00;7.97;;;2.63;;
70558;SDS011;58108;48.094;11.838;2023-09-18T07:31:26;5.57;;;2.40;;
70558;SDS011;58108;48.094;11.838;2023-09-18T07:33:51;5.37;;;2.40;;
70558;SDS011;58108;48.094;11.838;2023-09-18T07:36:18;5.97;;;2.10;;
70558;SDS011;58108;48.094;11.838;2023-09-18T07:38:43;6.17;;;1.90;;
70558;SDS011;58108;48.094;11.838;2023-09-18T07:41:08;10.73;;;2.03;;
70558;SDS011;58108;48.094;11.838;2023-09-18T07:43:34;7.50;;;2.23;;
70558;SDS011;58108;48.094;11.838;2023-09-18T07:45:59;5.50;;;2.27;;
70558;SDS011;58108;48.094;11.838;2023-09-18T07:48:26;8.20;;;1.83;;
70558;SDS011;58108;48.094;11.838;2023-09-18T07:50:51;6.33;;;1.70;;
70558;SDS011;58108;48.094;11.838;2023-09-18T07:53:17;7.37;;;1.90;;
70558;SDS011;58108;48.094;11.838;2023-09-18T07:55:42;8.50;;;1.97;;
70558;SDS011;58108;48.094;11.838;2023-09-18T07:58:07;4.63;;;2.20;;
70558;SDS011;58108;48.094;11.838;2023-09-18T08:00:33;5.60;;;2.05;;
70558;SDS011;58108;48.094;11.838;2023-09-18T08:02:58;7.73;;;2.20;;
70558;SDS011;58108;48.094;11.838;2023-09-18T08:05:26;6.85;;;2.10;;
70558;SDS011;58108;48.094;11.838;2023-09-18T08:07:55;7.78;;;2.38;;
70558;SDS011;58108;48.094;11.838;2023-09-18T08:10:21;6.63;;;2.23;;
70558;SDS011;58108;48.094;11.838;2023-09-18T08:12:47;6.80;;;2.20;;
70558;SDS011;58108;48.094;11.838;2023-09-18T08:15:13;7.43;;;2.30;;
70558;SDS011;58108;48.094;11.838;2023-09-18T08:17:38;9.37;;;2.40;;
70558;SDS011;58108;48.094;11.838;2023-09-18T08:20:05;6.87;;;2.17;;
70558;SDS011;58108;48.094;11.838;2023-09-18T08:22:37;5.93;;;2.00;;
70558;SDS011;58108;48.094;11.838;2023-09-18T08:25:02;8.97;;;2.20;;
70558;SDS011;58108;48.094;11.838;2023-09-18T08:27:27;6.97;;;2.50;;
70558;SDS011;58108;48.094;11.838;2023-09-18T08:29:54;5.90;;;2.22;;
70558;SDS011;58108;48.094;11.838;2023-09-18T08:32:19;8.03;;;2.10;;
70558;SDS011;58108;48.094;11.838;2023-09-18T08:34:44;6.97;;;2.67;;
70558;SDS011;58108;48.094;11.838;2023-09-18T08:37:09;6.50;;;2.23;;
70558;SDS011;58108;48.094;11.838;2023-09-18T08:39:34;6.77;;;2.50;;
70558;SDS011;58108;48.094;11.838;2023-09-18T08:42:04;6.30;;;2.20;;
70558;SDS011;58108;48.094;11.838;2023-09-18T08:44:30;7.57;;;2.28;;
70558;SDS011;58108;48.094;11.838;2023-09-18T08:46:55;5.67;;;2.20;;
70558;SDS011;58108;48.094;11.838;2023-09-18T08:49:22;5.67;;;2.30;;
70558;SDS011;58108;48.094;11.838;2023-09-18T08:51:47;6.20;;;2.55;;
70558;SDS011;58108;48.094;11.838;2023-09-18T08:54:13;5.00;;;2.50;;
70558;SDS011;58108;48.094;11.838;2023-09-18T08:56:38;6.17;;;2.50;;
70558;SDS011;58108;48.094;11.838;2023-09-18T08:59:04;6.57;;;2.60;;
70558;SDS011;58108;48.094;11.838;2023-09-18T09:01:29;5.23;;;2.47;;
70558;SDS011;58108;48.094;11.838;2023-09-18T09:03:54;6.57;;;2.30;;
70558;SDS011;58108;48.094;11.838;2023-09-18T09:06:20;6.00;;;2.33;;
70558;SDS011;58108;48.094;11.838;2023-09-18T09:08:45;6.13;;;2.03;;
70558;SDS011;58108;48.094;11.838;2023-09-18T09:11:10;7.83;;;2.50;;
70558;SDS011;58108;48.094;11.838;2023-09-18T09:13:36;4.77;;;2.57;;
70558;SDS011;58108;48.094;11.838;2023-09-18T09:16:01;7.63;;;2.30;;
70558;SDS011;58108;48.094;11.838;2023-09-18T09:18:27;4.70;;;2.25;;
70558;SDS011;58108;48.094;11.838;2023-09-18T09:23:19;8.33;;;2.70;;
70558;SDS011;58108;48.094;11.838;2023-09-18T09:25:44;7.43;;;2.17;;
70558;SDS011;58108;48.094;11.838;2023-09-18T09:28:09;10.17;;;2.90;;
70558;SDS011;58108;48.094;11.838;2023-09-18T09:30:35;5.77;;;2.80;;
70558;SDS011;58108;48.094;11.838;2023-09-18T09:33:04;6.23;;;2.53;;
70558;SDS011;58108;48.094;11.838;2023-09-18T09:35:30;8.75;;;2.78;;
70558;SDS011;58108;48.094;11.838;2023-09-18T09:37:57;6.05;;;2.00;;
70558;SDS011;58108;48.094;11.838;2023-09-18T09:40:25;6.25;;;2.83;;
70558;SDS011;58108;48.094;11.838;2023-09-18T09:42:51;5.13;;;2.30;;
70558;SDS011;58108;48.094;11.838;2023-09-18T09:45:16;7.35;;;2.80;;
70558;SDS011;58108;48.094;11.838;2023-09-18T09:47:43;4.45;;;2.33;;
70558;SDS011;58108;48.094;11.838;2023-09-18T09:50:15;6.23;;;2.60;;
70558;SDS011;58108;48.094;11.838;2023-09-18T09:52:43;6.30;;;2.80;;
70558;SDS011;58108;48.094;11.838;2023-09-18T09:55:19;7.18;;;2.90;;
70558;SDS011;58108;48.094;11.838;2023-09-18T09:57:49;5.30;;;2.30;;
70558;SDS011;58108;48.094;11.838;2023-09-18T10:00:15;6.45;;;2.55;;
70558;SDS011;58108;48.094;11.838;2023-09-18T10:02:52;7.93;;;2.67;;
70558;SDS011;58108;48.094;11.838;2023-09-18T10:05:18;7.03;;;2.47;;
70558;SDS011;58108;48.094;11.838;2023-09-18T10:07:44;7.93;;;2.67;;
70558;SDS011;58108;48.094;11.838;2023-09-18T10:10:09;7.30;;;2.87;;
70558;SDS011;58108;48.094;11.838;2023-09-18T10:12:35;6.53;;;2.67;;
70558;SDS011;58108;48.094;11.838;2023-09-18T10:15:01;6.23;;;2.60;;
70558;SDS011;58108;48.094;11.838;2023-09-18T10:17:28;5.68;;;2.33;;
70558;SDS011;58108;48.094;11.838;2023-09-18T10:20:01;5.88;;;2.30;;
70558;SDS011;58108;48.094;11.838;2023-09-18T10:22:37;7.05;;;2.50;;
70558;SDS011;58108;48.094;11.838;2023-09-18T10:25:08;8.02;;;2.38;;
70558;SDS011;58108;48.094;11.838;2023-09-18T10:27:35;6.70;;;2.40;;
70558;SDS011;58108;48.094;11.838;2023-09-18T10:30:01;8.13;;;2.13;;
70558;SDS011;58108;48.094;11.838;2023-09-18T10:32:30;9.70;;;2.65;;
70558;SDS011;58108;48.094;11.838;2023-09-18T10:34:57;7.05;;;2.30;;
70558;SDS011;58108;48.094;11.838;2023-09-18T10:37:25;7.30;;;2.38;;
70558;SDS011;58108;48.094;11.838;2023-09-18T10:39:51;8.50;;;2.50;;
70558;SDS011;58108;48.094;11.838;2023-09-18T10:42:17;8.60;;;2.63;;
70558;SDS011;58108;48.094;11.838;2023-09-18T10:44:43;5.85;;;2.20;;
70558;SDS011;58108;48.094;11.838;2023-09-18T10:47:10;7.33;;;2.27;;
70558;SDS011;58108;48.094;11.838;2023-09-18T10:49:36;9.00;;;2.30;;
70558;SDS011;58108;48.094;11.838;2023-09-18T10:52:01;6.33;;;2.40;;
70558;SDS011;58108;48.094;11.838;2023-09-18T10:54:29;6.78;;;2.25;;
70558;SDS011;58108;48.094;11.838;2023-09-18T10:56:55;7.65;;;2.25;;
70558;SDS011;58108;48.094;11.838;2023-09-18T10:59:21;7.03;;;2.40;;
70558;SDS011;58108;48.094;11.838;2023-09-18T11:01:46;8.90;;;2.25;;
70558;SDS011;58108;48.094;11.838;2023-09-18T11:04:13;6.90;;;2.00;;
70558;SDS011;58108;48.094;11.838;2023-09-18T11:09:20;7.25;;;2.22;;
70558;SDS011;58108;48.094;11.838;2023-09-18T11:11:45;8.43;;;2.15;;
70558;SDS011;58108;48.094;11.838;2023-09-18T11:14:13;5.32;;;1.63;;
70558;SDS011;58108;48.094;11.838;2023-09-18T11:16:40;6.20;;;1.60;;
70558;SDS011;58108;48.094;11.838;2023-09-18T11:19:10;4.57;;;1.60;;
70558;SDS011;58108;48.094;11.838;2023-09-18T11:21:36;6.25;;;1.80;;
70558;SDS011;58108;48.094;11.838;2023-09-18T11:24:11;8.53;;;1.70;;
70558;SDS011;58108;48.094;11.838;2023-09-18T11:26:41;7.22;;;2.00;;
70558;SDS011;58108;48.094;11.838;2023-09-18T11:29:07;6.70;;;1.90;;
70558;SDS011;58108;48.094;11.838;2023-09-18T11:31:50;9.13;;;1.85;;
70558;SDS011;58108;48.094;11.838;2023-09-18T11:36:41;7.70;;;1.60;;
70558;SDS011;58108;48.094;11.838;2023-09-18T11:39:06;6.37;;;2.33;;
70558;SDS011;58108;48.094;11.838;2023-09-18T11:41:33;5.75;;;1.67;;
70558;SDS011;58108;48.094;11.838;2023-09-18T11:46:45;5.07;;;1.80;;
70558;SDS011;58108;48.094;11.838;2023-09-18T11:49:10;10.87;;;2.37;;
70558;SDS011;58108;48.094;11.838;2023-09-18T11:51:36;9.27;;;2.20;;
70558;SDS011;58108;48.094;11.838;2023-09-18T11:54:01;5.20;;;1.77;;
70558;SDS011;58108;48.094;11.838;2023-09-18T11:56:28;6.60;;;2.17;;
70558;SDS011;58108;48.094;11.838;2023-09-18T11:58:53;7.60;;;2.27;;
70558;SDS011;58108;48.094;11.838;2023-09-18T12:01:20;8.45;;;2.83;;
70558;SDS011;58108;48.094;11.838;2023-09-18T12:03:52;9.93;;;2.90;;
70558;SDS011;58108;48.094;11.838;2023-09-18T12:06:17;10.77;;;3.17;;
70558;SDS011;58108;48.094;11.838;2023-09-18T12:08:42;7.67;;;2.43;;
70558;SDS011;58108;48.094;11.838;2023-09-18T12:11:08;6.57;;;1.83;;
70558;SDS011;58108;48.094;11.838;2023-09-18T12:13:33;6.80;;;1.70;;
70558;SDS011;58108;48.094;11.838;2023-09-18T12:15:59;6.33;;;1.60;;
70558;SDS011;58108;48.094;11.838;2023-09-18T12:18:25;3.53;;;0.90;;
70558;SDS011;58108;48.094;11.838;2023-09-18T12:20:53;6.10;;;1.20;;
70558;SDS011;58108;48.094;11.838;2023-09-18T12:23:18;4.30;;;1.17;;
70558;SDS011;58108;48.094;11.838;2023-09-18T12:25:48;4.07;;;0.93;;
70558;SDS011;58108;48.094;11.838;2023-09-18T12:28:14;4.55;;;0.88;;
70558;SDS011;58108;48.094;11.838;2023-09-18T12:30:43;7.22;;;1.08;;
70558;SDS011;58108;48.094;11.838;2023-09-18T12:33:08;5.70;;;0.80;;
70558;SDS011;58108;48.094;11.838;2023-09-18T12:35:34;6.43;;;0.90;;
70558;SDS011;58108;48.094;11.838;2023-09-18T12:37:59;3.53;;;0.90;;
70558;SDS011;58108;48.094;11.838;2023-09-18T12:40:26;6.47;;;0.80;;
70558;SDS011;58108;48.094;11.838;2023-09-18T12:42:51;3.25;;;0.57;;
70558;SDS011;58108;48.094;11.838;2023-09-18T12:45:18;2.37;;;0.87;;
70558;SDS011;58108;48.094;11.838;2023-09-18T12:47:44;2.75;;;0.40;;
70558;SDS011;58108;48.094;11.838;2023-09-18T12:50:12;3.40;;;0.60;;
70558;SDS011;58108;48.094;11.838;2023-09-18T12:52:37;2.23;;;0.40;;
70558;SDS011;58108;48.094;11.838;2023-09-18T12:55:02;3.33;;;0.50;;
70558;SDS011;58108;48.094;11.838;2023-09-18T12:57:30;2.90;;;0.57;;
70558;SDS011;58108;48.094;11.838;2023-09-18T12:59:56;3.13;;;0.67;;
70558;SDS011;58108;48.094;11.838;2023-09-18T13:02:21;4.30;;;0.47;;
70558;SDS011;58108;48.094;11.838;2023-09-18T13:04:53;2.17;;;0.53;;
70558;SDS011;58108;48.094;11.838;2023-09-18T13:07:18;2.75;;;0.40;;
70558;SDS011;58108;48.094;11.838;2023-09-18T13:09:57;2.57;;;0.50;;
70558;SDS011;58108;48.094;11.838;2023-09-18T13:12:23;2.58;;;0.40;;
70558;SDS011;58108;48.094;11.838;2023-09-18T13:14:58;5.00;;;0.40;;
70558;SDS011;58108;48.094;11.838;2023-09-18T13:17:43;2.90;;;0.38;;
70558;SDS011;58108;48.094;11.838;2023-09-18T13:20:20;3.42;;;0.40;;
70558;SDS011;58108;48.094;11.838;2023-09-18T13:22:49;3.00;;;0.30;;
70558;SDS011;58108;48.094;11.838;2023-09-18T13:25:34;1.85;;;0.20;;
70558;SDS011;58108;48.094;11.838;2023-09-18T13:27:59;3.78;;;0.38;;
70558;SDS011;58108;48.094;11.838;2023-09-18T13:30:25;3.65;;;0.40;;
70558;SDS011;58108;48.094;11.838;2023-09-18T13:32:50;2.53;;;0.30;;
70558;SDS011;58108;48.094;11.838;2023-09-18T13:35:16;2.37;;;0.30;;
70558;SDS011;58108;48.094;11.838;2023-09-18T13:37:42;4.60;;;0.40;;
70558;SDS011;58108;48.094;11.838;2023-09-18T13:40:07;1.35;;;0.20;;
70558;SDS011;58108;48.094;11.838;2023-09-18T13:42:34;4.80;;;0.30;;
70558;SDS011;58108;48.094;11.838;2023-09-18T13:44:59;1.87;;;0.20;;
70558;SDS011;58108;48.094;11.838;2023-09-18T13:47:34;3.15;;;0.50;;
70558;SDS011;58108;48.094;11.838;2023-09-18T13:50:00;2.50;;;0.37;;
70558;SDS011;58108;48.094;11.838;2023-09-18T13:52:26;3.40;;;0.30;;
70558;SDS011;58108;48.094;11.838;2023-09-18T13:54:51;4.43;;;0.38;;
70558;SDS011;58108;48.094;11.838;2023-09-18T13:57:20;2.23;;;0.30;;
70558;SDS011;58108;48.094;11.838;2023-09-18T13:59:46;2.42;;;0.32;;
70558;SDS011;58108;48.094;11.838;2023-09-18T14:02:12;3.13;;;0.40;;
70558;SDS011;58108;48.094;11.838;2023-09-18T14:04:37;2.77;;;0.47;;
70558;SDS011;58108;48.094;11.838;2023-09-18T14:07:03;2.93;;;0.40;;
70558;SDS011;58108;48.094;11.838;2023-09-18T14:09:28;3.42;;;0.50;;
70558;SDS011;58108;48.094;11.838;2023-09-18T14:11:54;3.80;;;0.40;;
70558;SDS011;58108;48.094;11.838;2023-09-18T14:14:19;1.50;;;0.20;;
70558;SDS011;58108;48.094;11.838;2023-09-18T14:16:44;2.23;;;0.40;;
70558;SDS011;58108;48.094;11.838;2023-09-18T14:19:10;2.90;;;0.30;;
70558;SDS011;58108;48.094;11.838;2023-09-18T14:21:36;2.78;;;0.52;;
70558;SDS011;58108;48.094;11.838;2023-09-18T14:24:03;2.58;;;0.40;;
70558;SDS011;58108;48.094;11.838;2023-09-18T14:26:28;2.70;;;0.40;;
70558;SDS011;58108;48.094;11.838;2023-09-18T14:28:53;3.30;;;0.30;;
70558;SDS011;58108;48.094;11.838;2023-09-18T14:31:19;3.25;;;0.30;;
70558;SDS011;58108;48.094;11.838;2023-09-18T14:33:44;3.30;;;0.50;;
70558;SDS011;58108;48.094;11.838;2023-09-18T14:36:09;2.47;;;0.40;;
70558;SDS011;58108;48.094;11.838;2023-09-18T14:38:34;2.63;;;0.50;;
70558;SDS011;58108;48.094;11.838;2023-09-18T14:41:00;3.23;;;0.40;;